Terminal Aerodrome Forecast
Issued by NWS Houston/Galveston, TX

Home | Current Version | Previous Version | Text Only | Print | Product List | Glossary On
Versions: 1 2 3 4 5 6 7 8 9 10 11 12 13 14 15 16 17 18 19 20 21
000
FTUS44 KHGX 281135
TAFCLL
TAF
KCLL 281135Z 2812/2912 22003KT P6SM SKC
     FM281500 22008KT P6SM FEW025 SCT250
     FM282100 19007KT P6SM FEW060
     FM290900 21004KT P6SM SKC=

USA.gov is the U.S. government's official web portal to all federal, state and local government web resources and services.